sensor_id;sensor_type;location;lat;lon;timestamp;P1;durP1;ratioP1;P2;durP2;ratioP2
35257;SDS011;21385;50.878;8.050;2022-10-16T00:01:09;2.47;;;1.65;;
35257;SDS011;21385;50.878;8.050;2022-10-16T00:03:36;1.70;;;1.60;;
35257;SDS011;21385;50.878;8.050;2022-10-16T00:06:02;3.40;;;2.15;;
35257;SDS011;21385;50.878;8.050;2022-10-16T00:08:29;3.15;;;2.00;;
35257;SDS011;21385;50.878;8.050;2022-10-16T00:10:59;1.90;;;1.20;;
35257;SDS011;21385;50.878;8.050;2022-10-16T00:13:26;1.90;;;1.53;;
35257;SDS011;21385;50.878;8.050;2022-10-16T00:15:52;14.15;;;2.58;;
35257;SDS011;21385;50.878;8.050;2022-10-16T00:18:21;3.83;;;1.63;;
35257;SDS011;21385;50.878;8.050;2022-10-16T00:20:46;2.33;;;1.67;;
35257;SDS011;21385;50.878;8.050;2022-10-16T00:23:12;7.03;;;1.98;;
35257;SDS011;21385;50.878;8.050;2022-10-16T00:25:37;8.77;;;1.85;;
35257;SDS011;21385;50.878;8.050;2022-10-16T00:28:03;8.13;;;1.95;;
35257;SDS011;21385;50.878;8.050;2022-10-16T00:30:29;3.78;;;1.38;;
35257;SDS011;21385;50.878;8.050;2022-10-16T00:32:55;2.28;;;1.65;;
35257;SDS011;21385;50.878;8.050;2022-10-16T00:35:21;2.25;;;1.70;;
35257;SDS011;21385;50.878;8.050;2022-10-16T00:37:46;3.17;;;1.80;;
35257;SDS011;21385;50.878;8.050;2022-10-16T00:40:12;3.08;;;1.73;;
35257;SDS011;21385;50.878;8.050;2022-10-16T00:42:37;1.50;;;1.40;;
35257;SDS011;21385;50.878;8.050;2022-10-16T00:45:03;5.50;;;1.60;;
35257;SDS011;21385;50.878;8.050;2022-10-16T00:47:47;4.53;;;1.63;;
35257;SDS011;21385;50.878;8.050;2022-10-16T00:52:46;2.35;;;1.55;;
35257;SDS011;21385;50.878;8.050;2022-10-16T00:55:14;3.67;;;1.42;;
35257;SDS011;21385;50.878;8.050;2022-10-16T00:57:41;8.35;;;2.05;;
35257;SDS011;21385;50.878;8.050;2022-10-16T01:00:09;4.95;;;1.58;;
35257;SDS011;21385;50.878;8.050;2022-10-16T01:02:38;4.78;;;1.88;;
35257;SDS011;21385;50.878;8.050;2022-10-16T01:05:03;1.95;;;1.65;;
35257;SDS011;21385;50.878;8.050;2022-10-16T01:12:43;2.72;;;1.55;;
35257;SDS011;21385;50.878;8.050;2022-10-16T01:18:11;2.13;;;1.50;;
35257;SDS011;21385;50.878;8.050;2022-10-16T01:21:26;1.23;;;1.15;;
35257;SDS011;21385;50.878;8.050;2022-10-16T01:23:49;1.30;;;1.10;;
35257;SDS011;21385;50.878;8.050;2022-10-16T01:26:31;3.38;;;1.38;;
35257;SDS011;21385;50.878;8.050;2022-10-16T01:29:08;3.08;;;1.20;;
35257;SDS011;21385;50.878;8.050;2022-10-16T01:31:42;1.42;;;1.30;;
35257;SDS011;21385;50.878;8.050;2022-10-16T01:34:17;1.92;;;1.40;;
35257;SDS011;21385;50.878;8.050;2022-10-16T01:36:56;5.47;;;1.38;;
35257;SDS011;21385;50.878;8.050;2022-10-16T01:39:25;1.65;;;1.17;;
35257;SDS011;21385;50.878;8.050;2022-10-16T01:41:58;1.58;;;1.25;;
35257;SDS011;21385;50.878;8.050;2022-10-16T01:44:32;2.58;;;1.63;;
35257;SDS011;21385;50.878;8.050;2022-10-16T01:47:01;5.70;;;1.00;;
35257;SDS011;21385;50.878;8.050;2022-10-16T01:49:29;3.53;;;1.25;;
35257;SDS011;21385;50.878;8.050;2022-10-16T01:51:58;1.00;;;0.90;;
35257;SDS011;21385;50.878;8.050;2022-10-16T01:54:27;0.88;;;0.88;;
35257;SDS011;21385;50.878;8.050;2022-10-16T01:56:55;1.67;;;1.13;;
35257;SDS011;21385;50.878;8.050;2022-10-16T01:59:22;1.88;;;1.30;;
35257;SDS011;21385;50.878;8.050;2022-10-16T02:01:52;3.50;;;1.45;;
35257;SDS011;21385;50.878;8.050;2022-10-16T02:05:22;1.92;;;1.45;;
35257;SDS011;21385;50.878;8.050;2022-10-16T02:07:22;0.90;;;0.88;;
35257;SDS011;21385;50.878;8.050;2022-10-16T02:09:48;7.93;;;1.38;;
35257;SDS011;21385;50.878;8.050;2022-10-16T02:12:14;2.15;;;1.40;;
35257;SDS011;21385;50.878;8.050;2022-10-16T02:14:47;2.30;;;1.58;;
35257;SDS011;21385;50.878;8.050;2022-10-16T02:17:14;1.33;;;1.10;;
35257;SDS011;21385;50.878;8.050;2022-10-16T02:19:42;2.28;;;1.30;;
35257;SDS011;21385;50.878;8.050;2022-10-16T02:22:09;4.85;;;1.23;;
35257;SDS011;21385;50.878;8.050;2022-10-16T02:24:47;1.63;;;1.27;;
35257;SDS011;21385;50.878;8.050;2022-10-16T02:30:10;3.35;;;1.38;;
35257;SDS011;21385;50.878;8.050;2022-10-16T02:32:44;1.27;;;0.93;;
35257;SDS011;21385;50.878;8.050;2022-10-16T02:35:12;5.13;;;1.42;;
35257;SDS011;21385;50.878;8.050;2022-10-16T02:37:40;4.05;;;1.15;;
35257;SDS011;21385;50.878;8.050;2022-10-16T02:40:06;1.65;;;0.90;;
35257;SDS011;21385;50.878;8.050;2022-10-16T02:42:33;1.30;;;1.05;;
35257;SDS011;21385;50.878;8.050;2022-10-16T02:45:00;7.18;;;1.30;;
35257;SDS011;21385;50.878;8.050;2022-10-16T02:47:26;6.75;;;1.30;;
35257;SDS011;21385;50.878;8.050;2022-10-16T02:49:52;3.83;;;1.17;;
35257;SDS011;21385;50.878;8.050;2022-10-16T02:52:17;1.17;;;1.02;;
35257;SDS011;21385;50.878;8.050;2022-10-16T02:54:43;2.58;;;0.85;;
35257;SDS011;21385;50.878;8.050;2022-10-16T02:57:08;5.60;;;1.00;;
35257;SDS011;21385;50.878;8.050;2022-10-16T02:59:34;2.78;;;1.10;;
35257;SDS011;21385;50.878;8.050;2022-10-16T03:01:59;1.88;;;1.20;;
35257;SDS011;21385;50.878;8.050;2022-10-16T03:04:25;2.90;;;1.13;;
35257;SDS011;21385;50.878;8.050;2022-10-16T03:06:50;1.45;;;1.20;;
35257;SDS011;21385;50.878;8.050;2022-10-16T03:09:16;3.35;;;1.15;;
35257;SDS011;21385;50.878;8.050;2022-10-16T03:11:41;1.50;;;0.70;;
35257;SDS011;21385;50.878;8.050;2022-10-16T03:14:07;1.10;;;0.95;;
35257;SDS011;21385;50.878;8.050;2022-10-16T03:16:32;1.20;;;0.90;;
35257;SDS011;21385;50.878;8.050;2022-10-16T03:18:58;1.40;;;1.00;;
35257;SDS011;21385;50.878;8.050;2022-10-16T03:21:24;1.05;;;0.95;;
35257;SDS011;21385;50.878;8.050;2022-10-16T03:23:49;1.92;;;1.10;;
35257;SDS011;21385;50.878;8.050;2022-10-16T03:26:15;9.40;;;1.20;;
35257;SDS011;21385;50.878;8.050;2022-10-16T03:28:40;2.70;;;1.38;;
35257;SDS011;21385;50.878;8.050;2022-10-16T03:31:06;1.20;;;0.68;;
35257;SDS011;21385;50.878;8.050;2022-10-16T03:33:32;4.07;;;1.52;;
35257;SDS011;21385;50.878;8.050;2022-10-16T03:35:57;6.78;;;0.90;;
35257;SDS011;21385;50.878;8.050;2022-10-16T03:38:23;3.03;;;1.08;;
35257;SDS011;21385;50.878;8.050;2022-10-16T03:40:48;1.42;;;1.00;;
35257;SDS011;21385;50.878;8.050;2022-10-16T03:43:14;3.10;;;1.08;;
35257;SDS011;21385;50.878;8.050;2022-10-16T03:45:40;1.90;;;1.15;;
35257;SDS011;21385;50.878;8.050;2022-10-16T03:48:05;9.45;;;1.48;;
35257;SDS011;21385;50.878;8.050;2022-10-16T03:50:31;3.03;;;1.00;;
35257;SDS011;21385;50.878;8.050;2022-10-16T03:52:56;7.10;;;1.13;;
35257;SDS011;21385;50.878;8.050;2022-10-16T03:55:22;0.93;;;0.90;;
35257;SDS011;21385;50.878;8.050;2022-10-16T03:57:47;5.47;;;1.30;;
35257;SDS011;21385;50.878;8.050;2022-10-16T04:00:13;1.73;;;0.95;;
35257;SDS011;21385;50.878;8.050;2022-10-16T04:02:39;3.08;;;1.30;;
35257;SDS011;21385;50.878;8.050;2022-10-16T04:05:04;3.90;;;1.10;;
35257;SDS011;21385;50.878;8.050;2022-10-16T04:07:30;7.85;;;1.23;;
35257;SDS011;21385;50.878;8.050;2022-10-16T04:09:56;6.35;;;1.30;;
35257;SDS011;21385;50.878;8.050;2022-10-16T04:12:23;5.75;;;1.17;;
35257;SDS011;21385;50.878;8.050;2022-10-16T04:14:49;0.82;;;0.82;;
35257;SDS011;21385;50.878;8.050;2022-10-16T04:17:15;6.72;;;1.27;;
35257;SDS011;21385;50.878;8.050;2022-10-16T04:19:41;3.47;;;1.42;;
35257;SDS011;21385;50.878;8.050;2022-10-16T04:22:06;2.95;;;1.30;;
35257;SDS011;21385;50.878;8.050;2022-10-16T04:24:32;4.32;;;1.15;;
35257;SDS011;21385;50.878;8.050;2022-10-16T04:26:57;5.22;;;1.58;;
35257;SDS011;21385;50.878;8.050;2022-10-16T04:29:23;1.15;;;0.88;;
35257;SDS011;21385;50.878;8.050;2022-10-16T04:31:48;3.50;;;1.02;;
35257;SDS011;21385;50.878;8.050;2022-10-16T04:34:14;3.78;;;0.90;;
35257;SDS011;21385;50.878;8.050;2022-10-16T04:36:40;1.60;;;0.93;;
35257;SDS011;21385;50.878;8.050;2022-10-16T04:39:05;2.17;;;0.93;;
35257;SDS011;21385;50.878;8.050;2022-10-16T04:41:31;2.58;;;0.50;;
35257;SDS011;21385;50.878;8.050;2022-10-16T04:43:56;0.98;;;0.80;;
35257;SDS011;21385;50.878;8.050;2022-10-16T04:46:22;1.13;;;0.60;;
35257;SDS011;21385;50.878;8.050;2022-10-16T04:48:47;3.28;;;1.35;;
35257;SDS011;21385;50.878;8.050;2022-10-16T04:51:13;1.02;;;0.88;;
35257;SDS011;21385;50.878;8.050;2022-10-16T04:53:39;0.70;;;0.70;;
35257;SDS011;21385;50.878;8.050;2022-10-16T04:56:04;0.60;;;0.60;;
35257;SDS011;21385;50.878;8.050;2022-10-16T04:58:30;4.35;;;0.82;;
35257;SDS011;21385;50.878;8.050;2022-10-16T05:00:56;1.05;;;0.80;;
35257;SDS011;21385;50.878;8.050;2022-10-16T05:03:21;0.50;;;0.50;;
35257;SDS011;21385;50.878;8.050;2022-10-16T05:05:47;0.55;;;0.55;;
35257;SDS011;21385;50.878;8.050;2022-10-16T05:08:13;5.82;;;0.90;;
35257;SDS011;21385;50.878;8.050;2022-10-16T05:10:41;1.17;;;0.82;;
35257;SDS011;21385;50.878;8.050;2022-10-16T05:13:07;0.75;;;0.73;;
35257;SDS011;21385;50.878;8.050;2022-10-16T05:15:33;0.90;;;0.80;;
35257;SDS011;21385;50.878;8.050;2022-10-16T05:17:59;1.20;;;0.73;;
35257;SDS011;21385;50.878;8.050;2022-10-16T05:20:24;0.63;;;0.63;;
35257;SDS011;21385;50.878;8.050;2022-10-16T05:22:50;0.98;;;0.70;;
35257;SDS011;21385;50.878;8.050;2022-10-16T05:25:16;1.25;;;0.90;;
35257;SDS011;21385;50.878;8.050;2022-10-16T05:27:42;1.17;;;0.60;;
35257;SDS011;21385;50.878;8.050;2022-10-16T05:30:07;2.40;;;0.98;;
35257;SDS011;21385;50.878;8.050;2022-10-16T05:32:33;1.70;;;0.95;;
35257;SDS011;21385;50.878;8.050;2022-10-16T05:34:59;3.00;;;0.98;;
35257;SDS011;21385;50.878;8.050;2022-10-16T05:37:25;0.93;;;0.70;;
35257;SDS011;21385;50.878;8.050;2022-10-16T05:39:52;3.72;;;1.10;;
35257;SDS011;21385;50.878;8.050;2022-10-16T05:42:17;1.20;;;1.00;;
35257;SDS011;21385;50.878;8.050;2022-10-16T05:44:43;0.75;;;0.75;;
35257;SDS011;21385;50.878;8.050;2022-10-16T05:47:09;0.55;;;0.52;;
35257;SDS011;21385;50.878;8.050;2022-10-16T05:49:35;0.70;;;0.60;;
35257;SDS011;21385;50.878;8.050;2022-10-16T05:52:01;2.15;;;1.05;;
35257;SDS011;21385;50.878;8.050;2022-10-16T05:54:27;0.77;;;0.77;;
35257;SDS011;21385;50.878;8.050;2022-10-16T05:56:52;0.98;;;0.88;;
35257;SDS011;21385;50.878;8.050;2022-10-16T05:59:18;6.32;;;1.08;;
35257;SDS011;21385;50.878;8.050;2022-10-16T06:01:43;1.83;;;1.00;;
35257;SDS011;21385;50.878;8.050;2022-10-16T06:04:09;2.17;;;1.00;;
35257;SDS011;21385;50.878;8.050;2022-10-16T06:06:35;1.80;;;1.23;;
35257;SDS011;21385;50.878;8.050;2022-10-16T06:09:01;3.78;;;1.48;;
35257;SDS011;21385;50.878;8.050;2022-10-16T06:11:29;1.75;;;0.70;;
35257;SDS011;21385;50.878;8.050;2022-10-16T06:13:57;0.60;;;0.60;;
35257;SDS011;21385;50.878;8.050;2022-10-16T06:16:25;7.53;;;0.80;;
35257;SDS011;21385;50.878;8.050;2022-10-16T06:18:51;0.80;;;0.80;;
35257;SDS011;21385;50.878;8.050;2022-10-16T06:21:19;2.88;;;0.70;;
35257;SDS011;21385;50.878;8.050;2022-10-16T06:23:46;1.80;;;0.50;;
35257;SDS011;21385;50.878;8.050;2022-10-16T06:26:13;1.25;;;0.70;;
35257;SDS011;21385;50.878;8.050;2022-10-16T06:28:40;0.68;;;0.68;;
35257;SDS011;21385;50.878;8.050;2022-10-16T06:31:06;2.13;;;0.60;;
35257;SDS011;21385;50.878;8.050;2022-10-16T06:33:33;2.20;;;1.10;;
35257;SDS011;21385;50.878;8.050;2022-10-16T06:36:02;1.85;;;1.20;;
35257;SDS011;21385;50.878;8.050;2022-10-16T06:38:33;0.70;;;0.52;;
35257;SDS011;21385;50.878;8.050;2022-10-16T06:40:58;0.70;;;0.60;;
35257;SDS011;21385;50.878;8.050;2022-10-16T06:43:24;1.55;;;1.08;;
35257;SDS011;21385;50.878;8.050;2022-10-16T06:45:54;1.40;;;0.65;;
35257;SDS011;21385;50.878;8.050;2022-10-16T06:48:23;1.60;;;0.65;;
35257;SDS011;21385;50.878;8.050;2022-10-16T06:50:58;0.35;;;0.35;;
35257;SDS011;21385;50.878;8.050;2022-10-16T06:53:26;0.38;;;0.38;;
35257;SDS011;21385;50.878;8.050;2022-10-16T06:55:53;1.08;;;0.50;;
35257;SDS011;21385;50.878;8.050;2022-10-16T06:58:19;0.60;;;0.60;;
35257;SDS011;21385;50.878;8.050;2022-10-16T07:00:45;1.25;;;0.82;;
35257;SDS011;21385;50.878;8.050;2022-10-16T07:03:11;0.47;;;0.47;;
35257;SDS011;21385;50.878;8.050;2022-10-16T07:05:37;0.40;;;0.40;;
35257;SDS011;21385;50.878;8.050;2022-10-16T07:08:04;0.38;;;0.38;;
35257;SDS011;21385;50.878;8.050;2022-10-16T07:10:30;3.30;;;0.43;;
35257;SDS011;21385;50.878;8.050;2022-10-16T07:12:56;1.17;;;0.47;;
35257;SDS011;21385;50.878;8.050;2022-10-16T07:15:22;0.85;;;0.50;;
35257;SDS011;21385;50.878;8.050;2022-10-16T07:17:47;1.23;;;0.60;;
35257;SDS011;21385;50.878;8.050;2022-10-16T07:20:13;0.20;;;0.20;;
35257;SDS011;21385;50.878;8.050;2022-10-16T07:22:39;1.20;;;0.38;;
35257;SDS011;21385;50.878;8.050;2022-10-16T07:25:04;0.45;;;0.30;;
35257;SDS011;21385;50.878;8.050;2022-10-16T07:27:30;8.35;;;0.50;;
35257;SDS011;21385;50.878;8.050;2022-10-16T07:29:56;6.10;;;0.52;;
35257;SDS011;21385;50.878;8.050;2022-10-16T07:32:21;0.70;;;0.40;;
35257;SDS011;21385;50.878;8.050;2022-10-16T07:34:47;0.45;;;0.40;;
35257;SDS011;21385;50.878;8.050;2022-10-16T07:37:12;0.55;;;0.50;;
35257;SDS011;21385;50.878;8.050;2022-10-16T07:39:38;1.45;;;0.40;;
35257;SDS011;21385;50.878;8.050;2022-10-16T07:42:03;0.40;;;0.40;;
35257;SDS011;21385;50.878;8.050;2022-10-16T07:44:29;0.60;;;0.32;;
35257;SDS011;21385;50.878;8.050;2022-10-16T07:46:54;2.67;;;0.55;;
35257;SDS011;21385;50.878;8.050;2022-10-16T07:49:20;4.97;;;0.50;;
35257;SDS011;21385;50.878;8.050;2022-10-16T07:51:46;0.45;;;0.38;;
35257;SDS011;21385;50.878;8.050;2022-10-16T07:54:11;0.75;;;0.38;;
35257;SDS011;21385;50.878;8.050;2022-10-16T07:56:37;0.35;;;0.35;;
35257;SDS011;21385;50.878;8.050;2022-10-16T07:59:02;1.20;;;0.30;;
35257;SDS011;21385;50.878;8.050;2022-10-16T08:01:28;0.35;;;0.20;;
35257;SDS011;21385;50.878;8.050;2022-10-16T08:03:54;0.38;;;0.30;;
35257;SDS011;21385;50.878;8.050;2022-10-16T08:06:20;0.30;;;0.30;;
35257;SDS011;21385;50.878;8.050;2022-10-16T08:08:46;0.20;;;0.20;;
35257;SDS011;21385;50.878;8.050;2022-10-16T08:11:12;1.77;;;0.40;;
35257;SDS011;21385;50.878;8.050;2022-10-16T08:13:39;0.28;;;0.22;;
35257;SDS011;21385;50.878;8.050;2022-10-16T08:16:05;3.30;;;0.40;;
35257;SDS011;21385;50.878;8.050;2022-10-16T08:18:33;0.47;;;0.28;;
35257;SDS011;21385;50.878;8.050;2022-10-16T08:21:00;0.17;;;0.17;;
35257;SDS011;21385;50.878;8.050;2022-10-16T08:23:26;1.02;;;0.63;;
35257;SDS011;21385;50.878;8.050;2022-10-16T08:25:52;4.65;;;0.40;;
35257;SDS011;21385;50.878;8.050;2022-10-16T08:28:18;0.40;;;0.40;;
35257;SDS011;21385;50.878;8.050;2022-10-16T08:30:45;1.70;;;0.40;;
35257;SDS011;21385;50.878;8.050;2022-10-16T08:33:10;1.90;;;0.52;;
35257;SDS011;21385;50.878;8.050;2022-10-16T08:35:36;1.67;;;0.55;;
35257;SDS011;21385;50.878;8.050;2022-10-16T08:38:05;0.55;;;0.40;;
35257;SDS011;21385;50.878;8.050;2022-10-16T08:40:31;1.50;;;0.60;;
35257;SDS011;21385;50.878;8.050;2022-10-16T08:51:29;0.30;;;0.30;;
35257;SDS011;21385;50.878;8.050;2022-10-16T08:53:57;1.70;;;0.50;;
35257;SDS011;21385;50.878;8.050;2022-10-16T08:56:26;0.30;;;0.30;;
35257;SDS011;21385;50.878;8.050;2022-10-16T08:58:52;0.50;;;0.30;;
35257;SDS011;21385;50.878;8.050;2022-10-16T09:01:19;0.98;;;0.40;;
35257;SDS011;21385;50.878;8.050;2022-10-16T09:06:36;1.35;;;0.45;;
35257;SDS011;21385;50.878;8.050;2022-10-16T09:23:08;0.30;;;0.30;;
35257;SDS011;21385;50.878;8.050;2022-10-16T09:25:39;5.75;;;0.82;;
35257;SDS011;21385;50.878;8.050;2022-10-16T09:28:08;0.93;;;0.28;;
35257;SDS011;21385;50.878;8.050;2022-10-16T09:30:35;0.50;;;0.50;;
35257;SDS011;21385;50.878;8.050;2022-10-16T09:33:01;5.10;;;0.52;;
35257;SDS011;21385;50.878;8.050;2022-10-16T09:35:33;4.88;;;0.65;;
35257;SDS011;21385;50.878;8.050;2022-10-16T09:38:05;0.43;;;0.43;;
35257;SDS011;21385;50.878;8.050;2022-10-16T09:40:36;0.40;;;0.40;;
35257;SDS011;21385;50.878;8.050;2022-10-16T09:46:03;3.25;;;0.40;;
35257;SDS011;21385;50.878;8.050;2022-10-16T09:51:05;0.40;;;0.40;;
35257;SDS011;21385;50.878;8.050;2022-10-16T09:53:37;1.67;;;0.47;;
35257;SDS011;21385;50.878;8.050;2022-10-16T09:56:05;0.95;;;0.50;;
35257;SDS011;21385;50.878;8.050;2022-10-16T09:58:31;1.75;;;0.35;;
35257;SDS011;21385;50.878;8.050;2022-10-16T10:00:58;1.20;;;0.55;;
35257;SDS011;21385;50.878;8.050;2022-10-16T10:03:35;0.98;;;0.40;;
35257;SDS011;21385;50.878;8.050;2022-10-16T10:06:23;0.73;;;0.40;;
35257;SDS011;21385;50.878;8.050;2022-10-16T10:09:04;0.55;;;0.30;;
35257;SDS011;21385;50.878;8.050;2022-10-16T10:14:20;8.43;;;0.43;;
35257;SDS011;21385;50.878;8.050;2022-10-16T10:16:51;0.47;;;0.22;;
35257;SDS011;21385;50.878;8.050;2022-10-16T10:19:19;4.95;;;0.30;;
35257;SDS011;21385;50.878;8.050;2022-10-16T10:21:49;0.32;;;0.22;;
35257;SDS011;21385;50.878;8.050;2022-10-16T10:24:17;1.65;;;0.40;;
35257;SDS011;21385;50.878;8.050;2022-10-16T10:26:47;0.65;;;0.40;;
35257;SDS011;21385;50.878;8.050;2022-10-16T10:32:08;0.35;;;0.35;;
35257;SDS011;21385;50.878;8.050;2022-10-16T10:35:15;0.30;;;0.30;;
35257;SDS011;21385;50.878;8.050;2022-10-16T10:38:11;0.70;;;0.40;;
35257;SDS011;21385;50.878;8.050;2022-10-16T10:41:00;0.38;;;0.30;;
35257;SDS011;21385;50.878;8.050;2022-10-16T10:43:52;0.20;;;0.20;;
35257;SDS011;21385;50.878;8.050;2022-10-16T10:46:36;0.60;;;0.20;;
35257;SDS011;21385;50.878;8.050;2022-10-16T10:57:28;0.82;;;0.40;;
35257;SDS011;21385;50.878;8.050;2022-10-16T11:08:10;3.40;;;0.40;;
35257;SDS011;21385;50.878;8.050;2022-10-16T11:16:20;0.85;;;0.47;;
35257;SDS011;21385;50.878;8.050;2022-10-16T11:21:30;0.63;;;0.30;;
35257;SDS011;21385;50.878;8.050;2022-10-16T11:24:11;0.20;;;0.20;;
35257;SDS011;21385;50.878;8.050;2022-10-16T11:26:44;1.77;;;0.47;;
35257;SDS011;21385;50.878;8.050;2022-10-16T11:29:26;0.75;;;0.40;;
35257;SDS011;21385;50.878;8.050;2022-10-16T11:31:55;0.30;;;0.30;;
35257;SDS011;21385;50.878;8.050;2022-10-16T11:37:02;2.60;;;0.30;;
35257;SDS011;21385;50.878;8.050;2022-10-16T11:39:35;0.57;;;0.30;;
35257;SDS011;21385;50.878;8.050;2022-10-16T11:47:48;0.30;;;0.30;;
35257;SDS011;21385;50.878;8.050;2022-10-16T11:52:55;0.50;;;0.40;;
35257;SDS011;21385;50.878;8.050;2022-10-16T11:55:42;1.10;;;0.30;;
35257;SDS011;21385;50.878;8.050;2022-10-16T12:00:45;0.65;;;0.40;;
35257;SDS011;21385;50.878;8.050;2022-10-16T12:03:20;2.53;;;0.38;;
35257;SDS011;21385;50.878;8.050;2022-10-16T12:06:01;1.45;;;0.45;;
35257;SDS011;21385;50.878;8.050;2022-10-16T12:08:48;0.43;;;0.40;;
35257;SDS011;21385;50.878;8.050;2022-10-16T12:14:04;0.85;;;0.50;;
35257;SDS011;21385;50.878;8.050;2022-10-16T12:16:37;0.38;;;0.30;;
35257;SDS011;21385;50.878;8.050;2022-10-16T12:19:26;1.27;;;0.40;;
35257;SDS011;21385;50.878;8.050;2022-10-16T12:21:55;0.57;;;0.22;;
35257;SDS011;21385;50.878;8.050;2022-10-16T12:24:31;0.60;;;0.22;;
35257;SDS011;21385;50.878;8.050;2022-10-16T12:26:57;0.73;;;0.40;;
35257;SDS011;21385;50.878;8.050;2022-10-16T12:31:52;0.77;;;0.32;;
35257;SDS011;21385;50.878;8.050;2022-10-16T12:34:26;3.65;;;0.35;;
35257;SDS011;21385;50.878;8.050;2022-10-16T12:37:26;0.32;;;0.25;;
35257;SDS011;21385;50.878;8.050;2022-10-16T12:39:55;0.60;;;0.30;;
35257;SDS011;21385;50.878;8.050;2022-10-16T12:44:54;0.55;;;0.30;;
35257;SDS011;21385;50.878;8.050;2022-10-16T12:47:21;0.57;;;0.40;;
35257;SDS011;21385;50.878;8.050;2022-10-16T12:49:51;0.73;;;0.40;;
35257;SDS011;21385;50.878;8.050;2022-10-16T12:54:56;0.20;;;0.20;;
35257;SDS011;21385;50.878;8.050;2022-10-16T12:57:38;0.45;;;0.35;;
35257;SDS011;21385;50.878;8.050;2022-10-16T13:00:19;2.83;;;0.47;;
35257;SDS011;21385;50.878;8.050;2022-10-16T13:02:57;0.90;;;0.30;;
35257;SDS011;21385;50.878;8.050;2022-10-16T13:13:52;0.20;;;0.20;;
35257;SDS011;21385;50.878;8.050;2022-10-16T13:30:35;0.98;;;0.90;;
35257;SDS011;21385;50.878;8.050;2022-10-16T13:33:15;0.20;;;0.20;;
35257;SDS011;21385;50.878;8.050;2022-10-16T13:35:51;0.30;;;0.30;;
35257;SDS011;21385;50.878;8.050;2022-10-16T13:38:20;0.32;;;0.22;;
35257;SDS011;21385;50.878;8.050;2022-10-16T13:41:32;1.45;;;0.30;;
35257;SDS011;21385;50.878;8.050;2022-10-16T13:48:44;0.20;;;0.20;;
35257;SDS011;21385;50.878;8.050;2022-10-16T13:51:20;3.97;;;0.20;;
35257;SDS011;21385;50.878;8.050;2022-10-16T13:53:46;0.32;;;0.30;;
35257;SDS011;21385;50.878;8.050;2022-10-16T13:56:13;1.27;;;0.32;;
35257;SDS011;21385;50.878;8.050;2022-10-16T13:58:42;0.50;;;0.25;;
35257;SDS011;21385;50.878;8.050;2022-10-16T14:01:15;0.50;;;0.40;;
35257;SDS011;21385;50.878;8.050;2022-10-16T14:03:47;0.40;;;0.25;;
35257;SDS011;21385;50.878;8.050;2022-10-16T14:06:14;2.90;;;0.47;;
35257;SDS011;21385;50.878;8.050;2022-10-16T14:08:48;0.32;;;0.30;;
35257;SDS011;21385;50.878;8.050;2022-10-16T14:11:21;0.63;;;0.40;;
35257;SDS011;21385;50.878;8.050;2022-10-16T14:13:48;0.30;;;0.30;;
35257;SDS011;21385;50.878;8.050;2022-10-16T14:16:22;0.47;;;0.45;;
35257;SDS011;21385;50.878;8.050;2022-10-16T14:19:33;0.35;;;0.35;;
35257;SDS011;21385;50.878;8.050;2022-10-16T14:21:42;0.20;;;0.20;;
35257;SDS011;21385;50.878;8.050;2022-10-16T14:24:11;1.25;;;0.60;;
35257;SDS011;21385;50.878;8.050;2022-10-16T14:26:57;0.40;;;0.30;;
35257;SDS011;21385;50.878;8.050;2022-10-16T14:29:24;0.90;;;0.50;;
35257;SDS011;21385;50.878;8.050;2022-10-16T14:32:00;0.30;;;0.30;;
35257;SDS011;21385;50.878;8.050;2022-10-16T14:34:31;1.13;;;0.30;;
35257;SDS011;21385;50.878;8.050;2022-10-16T14:37:05;0.30;;;0.30;;
35257;SDS011;21385;50.878;8.050;2022-10-16T14:39:51;1.35;;;0.30;;
35257;SDS011;21385;50.878;8.050;2022-10-16T14:42:18;0.20;;;0.20;;
35257;SDS011;21385;50.878;8.050;2022-10-16T14:44:48;1.43;;;0.33;;
35257;SDS011;21385;50.878;8.050;2022-10-16T14:47:18;0.30;;;0.30;;
35257;SDS011;21385;50.878;8.050;2022-10-16T14:49:49;3.10;;;0.50;;
35257;SDS011;21385;50.878;8.050;2022-10-16T14:52:15;4.20;;;0.30;;
35257;SDS011;21385;50.878;8.050;2022-10-16T14:54:41;0.20;;;0.20;;
35257;SDS011;21385;50.878;8.050;2022-10-16T14:57:40;1.20;;;0.55;;
35257;SDS011;21385;50.878;8.050;2022-10-16T15:00:00;7.63;;;0.43;;
35257;SDS011;21385;50.878;8.050;2022-10-16T15:02:36;0.47;;;0.30;;
35257;SDS011;21385;50.878;8.050;2022-10-16T15:05:07;0.55;;;0.30;;
35257;SDS011;21385;50.878;8.050;2022-10-16T15:07:36;0.38;;;0.30;;
35257;SDS011;21385;50.878;8.050;2022-10-16T15:10:01;1.80;;;0.52;;
35257;SDS011;21385;50.878;8.050;2022-10-16T15:12:27;1.17;;;0.38;;
35257;SDS011;21385;50.878;8.050;2022-10-16T15:14:53;0.77;;;0.50;;
35257;SDS011;21385;50.878;8.050;2022-10-16T15:17:18;4.55;;;0.63;;
35257;SDS011;21385;50.878;8.050;2022-10-16T15:19:44;0.22;;;0.22;;
35257;SDS011;21385;50.878;8.050;2022-10-16T15:22:10;0.52;;;0.35;;
35257;SDS011;21385;50.878;8.050;2022-10-16T15:24:37;0.57;;;0.40;;
35257;SDS011;21385;50.878;8.050;2022-10-16T15:27:02;0.47;;;0.38;;
35257;SDS011;21385;50.878;8.050;2022-10-16T15:29:28;1.17;;;0.55;;
35257;SDS011;21385;50.878;8.050;2022-10-16T15:31:54;0.35;;;0.32;;
35257;SDS011;21385;50.878;8.050;2022-10-16T15:34:19;0.43;;;0.30;;
35257;SDS011;21385;50.878;8.050;2022-10-16T15:36:45;4.88;;;0.50;;
35257;SDS011;21385;50.878;8.050;2022-10-16T15:39:17;0.85;;;0.50;;
35257;SDS011;21385;50.878;8.050;2022-10-16T15:41:44;0.52;;;0.52;;
35257;SDS011;21385;50.878;8.050;2022-10-16T15:44:16;0.20;;;0.20;;
35257;SDS011;21385;50.878;8.050;2022-10-16T15:46:42;1.83;;;0.52;;
35257;SDS011;21385;50.878;8.050;2022-10-16T15:49:07;0.20;;;0.20;;
35257;SDS011;21385;50.878;8.050;2022-10-16T15:51:34;1.35;;;0.43;;
35257;SDS011;21385;50.878;8.050;2022-10-16T15:54:03;0.20;;;0.20;;
35257;SDS011;21385;50.878;8.050;2022-10-16T15:56:29;2.22;;;0.30;;
35257;SDS011;21385;50.878;8.050;2022-10-16T15:58:55;1.48;;;0.50;;
35257;SDS011;21385;50.878;8.050;2022-10-16T16:01:22;6.60;;;0.57;;
35257;SDS011;21385;50.878;8.050;2022-10-16T16:03:47;0.75;;;0.40;;
35257;SDS011;21385;50.878;8.050;2022-10-16T16:06:17;0.90;;;0.30;;
35257;SDS011;21385;50.878;8.050;2022-10-16T16:08:42;0.65;;;0.40;;
35257;SDS011;21385;50.878;8.050;2022-10-16T16:11:09;0.60;;;0.60;;
35257;SDS011;21385;50.878;8.050;2022-10-16T16:13:36;3.58;;;0.70;;
35257;SDS011;21385;50.878;8.050;2022-10-16T16:16:10;1.33;;;0.40;;
35257;SDS011;21385;50.878;8.050;2022-10-16T16:18:36;2.03;;;0.75;;
35257;SDS011;21385;50.878;8.050;2022-10-16T16:21:03;0.75;;;0.38;;
35257;SDS011;21385;50.878;8.050;2022-10-16T16:23:29;0.50;;;0.47;;
35257;SDS011;21385;50.878;8.050;2022-10-16T16:28:57;1.08;;;0.50;;
35257;SDS011;21385;50.878;8.050;2022-10-16T16:31:24;0.82;;;0.40;;
35257;SDS011;21385;50.878;8.050;2022-10-16T16:33:51;0.20;;;0.20;;
35257;SDS011;21385;50.878;8.050;2022-10-16T16:36:17;0.43;;;0.43;;
35257;SDS011;21385;50.878;8.050;2022-10-16T16:38:43;0.35;;;0.35;;
35257;SDS011;21385;50.878;8.050;2022-10-16T16:41:11;0.98;;;0.73;;
35257;SDS011;21385;50.878;8.050;2022-10-16T16:43:41;0.95;;;0.57;;
35257;SDS011;21385;50.878;8.050;2022-10-16T16:46:07;1.75;;;0.60;;
35257;SDS011;21385;50.878;8.050;2022-10-16T16:48:33;0.30;;;0.30;;
35257;SDS011;21385;50.878;8.050;2022-10-16T16:51:02;0.45;;;0.40;;
35257;SDS011;21385;50.878;8.050;2022-10-16T16:53:35;7.60;;;0.50;;
35257;SDS011;21385;50.878;8.050;2022-10-16T16:56:04;1.42;;;0.40;;
35257;SDS011;21385;50.878;8.050;2022-10-16T16:58:30;0.40;;;0.40;;
35257;SDS011;21385;50.878;8.050;2022-10-16T17:00:56;0.63;;;0.47;;
35257;SDS011;21385;50.878;8.050;2022-10-16T17:03:26;3.55;;;2.92;;
35257;SDS011;21385;50.878;8.050;2022-10-16T17:05:58;4.97;;;3.63;;
35257;SDS011;21385;50.878;8.050;2022-10-16T17:08:32;8.45;;;5.78;;